createdAt,value
2023-04-21T00:07:35.426Z,1017.86
2023-04-21T00:17:42.699Z,1017.88
2023-04-21T00:27:50.284Z,1017.80
2023-04-21T00:37:57.507Z,1017.79
2023-04-21T00:48:04.363Z,1017.71
2023-04-21T00:58:11.091Z,1017.73
2023-04-21T01:08:18.401Z,1017.70
2023-04-21T01:18:25.721Z,1017.68
2023-04-21T01:28:32.465Z,1017.64
2023-04-21T01:38:39.547Z,1017.56
2023-04-21T01:48:46.908Z,1017.54
2023-04-21T01:58:53.275Z,1017.45
2023-04-21T02:09:00.494Z,1017.40
2023-04-21T02:19:07.641Z,1017.38
2023-04-21T02:29:14.592Z,1017.24
2023-04-21T02:39:21.956Z,1017.27
2023-04-21T02:49:28.710Z,1017.16
2023-04-21T02:59:36.306Z,1017.21
2023-04-21T03:09:43.115Z,1017.24
2023-04-21T03:19:50.065Z,1017.17
2023-04-21T03:29:57.229Z,1017.14
2023-04-21T03:40:04.649Z,1017.20
2023-04-21T03:50:12.229Z,1017.17
2023-04-21T04:00:19.008Z,1017.27
2023-04-21T04:10:26.267Z,1017.28
2023-04-21T04:20:33.151Z,1017.24
2023-04-21T04:30:40.526Z,1017.31
2023-04-21T04:40:47.420Z,1017.38
2023-04-21T04:50:54.533Z,1017.42
2023-04-21T05:01:01.650Z,1017.45
2023-04-21T05:11:08.418Z,1017.54
2023-04-21T05:21:15.983Z,1017.60
2023-04-21T05:31:22.700Z,1017.61
2023-04-21T05:41:29.707Z,1017.53
2023-04-21T05:51:36.889Z,1017.56
2023-04-21T06:01:43.555Z,1017.60
2023-04-21T06:11:50.561Z,1017.51
2023-04-21T06:21:57.827Z,1017.49
2023-04-21T06:32:04.735Z,1017.36
2023-04-21T06:42:12.047Z,1017.34
2023-04-21T06:52:20.058Z,1017.28
2023-04-21T07:02:27.074Z,1017.23
2023-04-21T07:12:33.601Z,1017.31
2023-04-21T07:22:40.940Z,1017.25
2023-04-21T07:32:48.275Z,1017.24
2023-04-21T07:42:56.186Z,1017.27
2023-04-21T07:53:03.313Z,1017.14
2023-04-21T08:03:10.442Z,1017.13
2023-04-21T08:13:18.200Z,1017.10
2023-04-21T08:23:25.433Z,1017.06
2023-04-21T08:33:32.642Z,1017.02
2023-04-21T08:43:40.095Z,1017.00
2023-04-21T08:53:47.411Z,1016.87
2023-04-21T09:03:54.628Z,1016.89
2023-04-21T09:14:01.377Z,1016.88
2023-04-21T09:24:08.671Z,1016.77
2023-04-21T09:34:15.369Z,1016.76
2023-04-21T09:44:23.684Z,1016.72
2023-04-21T09:54:32.065Z,1016.69
2023-04-21T10:04:40.447Z,1016.71
2023-04-21T10:14:48.125Z,1016.67
2023-04-21T10:24:54.874Z,1016.51
2023-04-21T10:35:02.213Z,1016.45
2023-04-21T10:45:10.278Z,1016.42
2023-04-21T10:55:17.056Z,1016.30
2023-04-21T11:05:24.223Z,1016.27
2023-04-21T11:15:31.201Z,1016.12
2023-04-21T11:25:37.720Z,1015.91
2023-04-21T11:35:45.189Z,1015.86
2023-04-21T11:45:52.498Z,1015.79
2023-04-21T11:55:59.721Z,1015.71
2023-04-21T12:06:06.251Z,1015.71
2023-04-21T12:16:13.125Z,1015.56
2023-04-21T12:26:20.381Z,1015.46
2023-04-21T12:36:27.411Z,1015.30
2023-04-21T12:46:34.658Z,1015.32
2023-04-21T12:56:41.506Z,1015.24
2023-04-21T13:06:48.353Z,1015.12
2023-04-21T13:16:55.316Z,1014.96
2023-04-21T13:27:02.545Z,1014.93
2023-04-21T13:37:09.730Z,1014.96
2023-04-21T13:47:16.643Z,1014.73
2023-04-21T13:57:23.840Z,1014.59
2023-04-21T14:07:30.699Z,1014.48
2023-04-21T14:17:38.150Z,1014.30
2023-04-21T14:27:45.209Z,1014.26
2023-04-21T14:37:55.243Z,1014.13
2023-04-21T14:48:02.979Z,1013.94
2023-04-21T14:58:09.895Z,1013.76
2023-04-21T15:08:17.267Z,1013.74
2023-04-21T15:18:24.761Z,1013.69
2023-04-21T15:28:32.063Z,1013.58
2023-04-21T15:38:39.464Z,1013.46
2023-04-21T15:48:46.320Z,1013.40
2023-04-21T15:58:53.022Z,1013.33
2023-04-21T16:09:00.327Z,1013.23
2023-04-21T16:19:07.446Z,1013.17
2023-04-21T16:29:14.460Z,1013.06
2023-04-21T16:39:22.029Z,1013.02
2023-04-21T16:49:29.476Z,1012.94
2023-04-21T16:59:37.450Z,1012.86
2023-04-21T17:09:44.876Z,1012.82
2023-04-21T17:19:51.346Z,1012.83
2023-04-21T17:29:58.658Z,1012.82
2023-04-21T17:40:05.564Z,1012.87
2023-04-21T17:50:12.660Z,1012.85
2023-04-21T18:00:19.944Z,1012.88
2023-04-21T18:10:29.592Z,1012.91
2023-04-21T18:20:37.232Z,1012.93
2023-04-21T18:30:43.917Z,1012.89
2023-04-21T18:40:50.917Z,1012.91
2023-04-21T18:50:57.977Z,1012.93
2023-04-21T19:01:04.841Z,1012.89
2023-04-21T19:11:12.142Z,1012.88
2023-04-21T19:21:19.590Z,1012.85
2023-04-21T19:31:27.304Z,1012.87
2023-04-21T19:41:34.036Z,1012.78
2023-04-21T19:51:41.199Z,1012.86
2023-04-21T20:01:48.681Z,1012.88
2023-04-21T20:11:56.276Z,1012.90
2023-04-21T20:22:03.276Z,1012.94
2023-04-21T20:32:10.274Z,1012.96
2023-04-21T20:42:17.672Z,1012.99
2023-04-21T20:52:24.812Z,1013.04
2023-04-21T21:02:32.153Z,1013.03
2023-04-21T21:12:39.360Z,1012.95
2023-04-21T21:22:45.730Z,1013.02
2023-04-21T21:32:52.889Z,1013.08
2023-04-21T21:42:59.604Z,1013.12
2023-04-21T21:53:06.854Z,1013.10
2023-04-21T22:03:13.780Z,1013.10
2023-04-21T22:13:21.142Z,1013.17
2023-04-21T22:23:27.707Z,1013.17
2023-04-21T22:33:35.340Z,1013.19
2023-04-21T22:43:42.846Z,1013.22
2023-04-21T22:53:50.011Z,1013.32
2023-04-21T23:03:57.612Z,1013.26
2023-04-21T23:14:05.542Z,1013.24
2023-04-21T23:24:12.175Z,1013.30
2023-04-21T23:34:19.584Z,1013.28
2023-04-21T23:44:27.015Z,1013.26
2023-04-21T23:54:33.201Z,1013.21
